Time;durP1;ratioP1;P1;durP2;ratioP2;P2;SDS_P1;SDS_P2;PMS_P1;PMS_P2;Temp;Humidity;BMP_temperature;BMP_pressure;BME280_temperature;BME280_humidity;BME280_pressure;Samples;Min_cycle;Max_cycle;Signal;HPM_P1;HPM_P2
2022/01/30 00:01:58;;;;;;;11.73;2.42;;;;;12.70;102431.00;;;;5124481;28;20189;-82
2022/01/30 00:04:25;;;;;;;10.95;2.25;;;;;12.70;102443.00;;;;5116549;28;20193;-82
2022/01/30 00:06:53;;;;;;;8.75;2.15;;;;;12.70;102443.00;;;;5115546;28;20278;-82
2022/01/30 00:09:22;;;;;;;8.45;2.15;;;;;12.70;102430.00;;;;5106121;28;20197;-83
2022/01/30 00:11:54;;;;;;;7.57;2.25;;;;;12.60;102462.00;;;;5112605;28;20189;-83
2022/01/30 00:14:23;;;;;;;8.63;2.20;;;;;12.60;102459.00;;;;5121914;28;20699;-84
2022/01/30 00:16:57;;;;;;;9.38;1.55;;;;;12.60;102453.00;;;;5113373;28;20189;-82
2022/01/30 00:19:31;;;;;;;6.35;2.05;;;;;12.60;102458.00;;;;5121828;28;20277;-82
2022/01/30 00:22:13;;;;;;;6.95;2.28;;;;;12.60;102452.00;;;;5109533;28;20197;-82
2022/01/30 00:24:49;;;;;;;6.97;1.45;;;;;12.60;102469.00;;;;5111244;28;20206;-82
2022/01/30 00:27:19;;;;;;;10.55;2.15;;;;;12.60;102467.00;;;;5097284;28;20224;-81
2022/01/30 00:29:47;;;;;;;6.95;1.83;;;;;12.60;102472.00;;;;5103199;28;20225;-82
2022/01/30 00:32:14;;;;;;;8.30;1.90;;;;;12.60;102479.00;;;;5104608;28;20201;-83
2022/01/30 00:34:42;;;;;;;8.98;1.90;;;;;12.60;102472.00;;;;5103749;28;20237;-82
2022/01/30 00:37:09;;;;;;;8.57;1.80;;;;;12.50;102471.00;;;;5104637;28;20193;-82
2022/01/30 00:39:36;;;;;;;8.48;1.83;;;;;12.50;102479.00;;;;5088745;28;20198;-82
2022/01/30 00:42:05;;;;;;;8.50;1.45;;;;;12.50;102472.00;;;;5084757;28;20209;-82
2022/01/30 00:44:33;;;;;;;9.52;2.28;;;;;12.50;102479.00;;;;5101486;28;20686;-83
2022/01/30 00:47:02;;;;;;;6.88;1.70;;;;;12.50;102481.00;;;;5095566;28;20221;-83
2022/01/30 00:49:30;;;;;;;8.20;1.58;;;;;12.50;102486.00;;;;5090833;28;20218;-82
2022/01/30 00:51:57;;;;;;;7.60;2.33;;;;;12.50;102484.00;;;;5084353;28;20456;-82
2022/01/30 00:54:24;;;;;;;11.45;2.00;;;;;12.40;102486.00;;;;5077930;28;20191;-82
2022/01/30 00:56:51;;;;;;;8.00;1.77;;;;;12.40;102491.00;;;;5070511;28;20195;-82
2022/01/30 00:59:20;;;;;;;8.48;1.67;;;;;12.40;102483.00;;;;5082495;28;20699;-82
2022/01/30 01:01:47;;;;;;;6.03;1.33;;;;;12.40;102490.00;;;;5071637;28;20203;-82
2022/01/30 01:04:15;;;;;;;11.15;1.85;;;;;12.40;102486.00;;;;5089234;28;20202;-83
2022/01/30 01:06:48;;;;;;;7.07;1.30;;;;;12.40;102479.00;;;;5090718;28;20222;-83
2022/01/30 01:09:16;;;;;;;23.92;1.80;;;;;12.40;102487.00;;;;5085067;28;20191;-82
2022/01/30 01:12:12;;;;;;;8.75;1.65;;;;;12.30;102475.00;;;;5070248;28;20722;-82
2022/01/30 01:25:40;;;;;;;7.45;1.42;;;;;12.20;102473.00;;;;5074623;28;20257;-82
2022/01/30 01:28:07;;;;;;;6.50;1.42;;;;;12.30;102480.00;;;;5073011;28;20657;-83
2022/01/30 01:30:36;;;;;;;7.45;1.77;;;;;12.20;102484.00;;;;5081152;28;21574;-82
2022/01/30 01:33:04;;;;;;;9.40;1.83;;;;;12.20;102483.00;;;;5089987;28;20257;-82
2022/01/30 01:35:31;;;;;;;10.15;2.33;;;;;12.20;102492.00;;;;5071441;28;20772;-82
2022/01/30 01:37:58;;;;;;;5.22;1.58;;;;;12.20;102498.00;;;;5081633;28;20199;-83
2022/01/30 01:40:26;;;;;;;9.80;1.20;;;;;12.20;102486.00;;;;5071297;28;20655;-81
2022/01/30 01:42:55;;;;;;;9.55;1.80;;;;;12.20;102486.00;;;;5076055;28;20640;-82
2022/01/30 01:45:24;;;;;;;8.32;1.60;;;;;12.20;102498.00;;;;5070888;28;20206;-82
2022/01/30 01:47:53;;;;;;;10.27;2.47;;;;;12.20;102501.00;;;;5073121;28;20216;-82
2022/01/30 01:50:38;;;;;;;5.85;1.58;;;;;12.20;102510.00;;;;5071394;28;20202;-82
2022/01/30 01:53:06;;;;;;;10.57;1.52;;;;;12.20;102500.00;;;;5074718;28;20555;-82
2022/01/30 01:55:34;;;;;;;8.02;1.75;;;;;12.10;102488.00;;;;5069669;28;20222;-81
2022/01/30 01:58:01;;;;;;;7.45;1.95;;;;;12.10;102495.00;;;;5072497;28;20572;-82
2022/01/30 02:00:28;;;;;;;8.68;1.52;;;;;12.10;102491.00;;;;5088447;28;20610;-83
2022/01/30 02:02:57;;;;;;;9.32;1.88;;;;;12.10;102492.00;;;;5072533;28;20637;-82
2022/01/30 02:05:27;;;;;;;5.55;1.30;;;;;12.10;102496.00;;;;5081645;28;20195;-82
2022/01/30 02:10:49;;;;;;;8.73;1.73;;;;;12.10;102504.00;;;;5075025;28;20295;-82
2022/01/30 02:24:43;;;;;;;7.63;1.45;;;;;12.10;102511.00;;;;5074111;28;20605;-82
2022/01/30 02:27:15;;;;;;;16.70;2.85;;;;;12.10;102497.00;;;;5071521;28;20217;-82
2022/01/30 02:29:42;;;;;;;9.57;1.75;;;;;12.10;102505.00;;;;5089152;28;20224;-82
2022/01/30 02:32:09;;;;;;;6.95;1.30;;;;;12.10;102498.00;;;;5069453;28;20203;-82
2022/01/30 02:34:36;;;;;;;7.68;1.55;;;;;12.10;102492.00;;;;5070508;28;20679;-83
2022/01/30 02:37:05;;;;;;;7.18;1.17;;;;;12.10;102492.00;;;;5068673;28;20219;-82
2022/01/30 02:39:34;;;;;;;6.40;1.30;;;;;12.10;102490.00;;;;5079375;28;20213;-81
2022/01/30 02:42:01;;;;;;;3.75;1.17;;;;;12.10;102499.00;;;;5088765;28;20670;-82
2022/01/30 02:44:34;;;;;;;6.65;1.27;;;;;12.10;102504.00;;;;5087691;28;20206;-82
2022/01/30 02:47:08;;;;;;;3.33;0.77;;;;;12.10;102506.00;;;;5082569;28;20205;-82
2022/01/30 02:49:46;;;;;;;6.47;1.20;;;;;12.10;102511.00;;;;5081397;28;20259;-81
2022/01/30 02:52:14;;;;;;;5.15;1.23;;;;;12.10;102502.00;;;;5074107;28;20202;-82
2022/01/30 02:54:43;;;;;;;4.72;1.02;;;;;12.10;102516.00;;;;5070282;28;20201;-82
2022/01/30 02:57:10;;;;;;;4.15;0.88;;;;;12.20;102517.00;;;;5068860;28;20230;-82
2022/01/30 02:59:39;;;;;;;7.15;1.38;;;;;12.20;102507.00;;;;5074561;28;20203;-82
2022/01/30 03:02:06;;;;;;;6.65;1.75;;;;;12.20;102514.00;;;;5077454;28;20209;-82
2022/01/30 03:04:33;;;;;;;4.60;0.82;;;;;12.20;102516.00;;;;5070791;28;20207;-82
2022/01/30 03:07:00;;;;;;;5.03;1.42;;;;;12.20;102515.00;;;;5068162;28;20207;-81
2022/01/30 03:09:27;;;;;;;8.18;1.15;;;;;12.30;102521.00;;;;5078535;28;20218;-82
2022/01/30 03:11:56;;;;;;;5.50;1.50;;;;;12.20;102523.00;;;;5088869;28;20197;-82
2022/01/30 03:14:23;;;;;;;5.32;1.23;;;;;12.20;102525.00;;;;5087830;28;20202;-81
2022/01/30 03:16:50;;;;;;;5.35;1.00;;;;;12.20;102534.00;;;;5086498;28;20211;-82
2022/01/30 03:19:18;;;;;;;5.10;0.93;;;;;12.20;102529.00;;;;5088328;28;20607;-82
2022/01/30 03:21:45;;;;;;;6.03;1.27;;;;;12.20;102532.00;;;;5084921;28;20207;-82
2022/01/30 03:24:12;;;;;;;4.00;1.25;;;;;12.20;102527.00;;;;5081415;28;20564;-82
2022/01/30 03:26:41;;;;;;;5.10;1.15;;;;;12.10;102529.00;;;;5086182;28;20213;-82
2022/01/30 03:29:10;;;;;;;8.30;1.50;;;;;12.10;102532.00;;;;5069212;28;20222;-81
2022/01/30 03:31:39;;;;;;;7.38;1.35;;;;;12.10;102533.00;;;;5072194;28;20213;-82
2022/01/30 03:34:11;;;;;;;6.68;1.50;;;;;12.00;102537.00;;;;5088054;28;20194;-82
2022/01/30 03:36:39;;;;;;;5.55;1.17;;;;;12.00;102534.00;;;;5088239;28;20236;-82
2022/01/30 03:39:06;;;;;;;5.70;1.30;;;;;12.00;102553.00;;;;5080421;28;20236;-82
2022/01/30 03:41:34;;;;;;;5.55;0.98;;;;;12.00;102543.00;;;;5068712;28;20202;-82
2022/01/30 03:44:01;;;;;;;5.43;0.75;;;;;11.90;102549.00;;;;5068481;28;20649;-82
2022/01/30 03:46:29;;;;;;;5.95;0.95;;;;;11.90;102559.00;;;;5068591;28;20195;-82
2022/01/30 03:48:57;;;;;;;4.90;1.45;;;;;11.90;102558.00;;;;5080502;28;20540;-81
2022/01/30 03:51:24;;;;;;;7.00;1.45;;;;;11.90;102560.00;;;;5086237;28;20194;-82
2022/01/30 03:53:51;;;;;;;5.60;0.85;;;;;11.90;102569.00;;;;5078460;28;20602;-82
2022/01/30 03:56:18;;;;;;;5.20;1.38;;;;;11.80;102576.00;;;;5073975;28;20229;-82
2022/01/30 03:58:45;;;;;;;6.55;1.33;;;;;11.80;102578.00;;;;5087649;28;20198;-82
2022/01/30 04:01:13;;;;;;;6.28;1.13;;;;;11.80;102581.00;;;;5084852;28;20203;-82
2022/01/30 04:03:41;;;;;;;3.45;0.75;;;;;11.80;102577.00;;;;5068213;28;20198;-81
2022/01/30 04:06:12;;;;;;;6.40;0.88;;;;;11.80;102591.00;;;;5067845;28;20199;-82
2022/01/30 04:08:40;;;;;;;7.40;1.10;;;;;11.80;102594.00;;;;5068077;28;20205;-82
2022/01/30 04:11:07;;;;;;;6.93;0.82;;;;;11.70;102589.00;;;;5085928;28;20213;-82
2022/01/30 04:13:35;;;;;;;6.80;1.25;;;;;11.70;102592.00;;;;5087334;28;20198;-82
2022/01/30 04:16:03;;;;;;;2.40;0.70;;;;;11.70;102601.00;;;;5086869;28;20218;-82
2022/01/30 04:18:30;;;;;;;7.90;1.10;;;;;11.70;102598.00;;;;5086796;28;20198;-81
2022/01/30 04:20:59;;;;;;;3.75;0.70;;;;;11.70;102584.00;;;;5085928;28;20202;-81
2022/01/30 04:23:26;;;;;;;9.85;1.05;;;;;11.70;102584.00;;;;5071266;28;20203;-81
2022/01/30 04:25:53;;;;;;;4.40;1.02;;;;;11.70;102590.00;;;;5083937;28;20710;-82
2022/01/30 04:28:21;;;;;;;4.85;0.82;;;;;11.60;102591.00;;;;5081190;28;20207;-82
2022/01/30 04:30:49;;;;;;;4.90;1.00;;;;;11.60;102598.00;;;;5076810;28;20243;-81
2022/01/30 04:33:17;;;;;;;5.07;1.00;;;;;11.60;102598.00;;;;5081295;28;20668;-82
2022/01/30 04:35:45;;;;;;;5.47;1.00;;;;;11.60;102603.00;;;;5072228;28;20222;-82
2022/01/30 04:38:21;;;;;;;3.03;1.20;;;;;11.70;102609.00;;;;5071498;28;20191;-82
2022/01/30 04:52:30;;;;;;;7.28;0.77;;;;;11.80;102621.00;;;;5084852;28;20621;-81
2022/01/30 04:57:57;;;;;;;2.63;0.35;;;;;11.80;102630.00;;;;5090783;28;20619;-82
2022/01/30 05:00:50;;;;;;;3.92;0.90;;;;;11.80;102640.00;;;;5090986;28;20241;-81
2022/01/30 05:03:31;;;;;;;4.00;1.00;;;;;11.80;102635.00;;;;5076294;28;20203;-82
2022/01/30 05:06:04;;;;;;;5.88;0.65;;;;;11.80;102644.00;;;;5071474;28;20202;-82
2022/01/30 05:08:32;;;;;;;4.57;1.35;;;;;11.80;102639.00;;;;5082621;28;20201;-81
2022/01/30 05:11:04;;;;;;;7.57;1.15;;;;;11.80;102645.00;;;;5070902;28;20204;-82
2022/01/30 05:13:34;;;;;;;4.18;0.75;;;;;11.80;102645.00;;;;5070379;28;20202;-81
2022/01/30 05:16:02;;;;;;;3.85;0.75;;;;;11.70;102657.00;;;;5070497;28;20223;-82
2022/01/30 05:18:32;;;;;;;7.90;1.90;;;;;11.70;102667.00;;;;5082405;28;20221;-81
2022/01/30 05:20:59;;;;;;;5.93;1.38;;;;;11.70;102660.00;;;;5072846;28;20198;-82
2022/01/30 05:23:27;;;;;;;3.28;0.75;;;;;11.70;102655.00;;;;5069994;28;20202;-82
2022/01/30 05:25:55;;;;;;;4.60;1.05;;;;;11.60;102650.00;;;;5070604;28;20214;-81
2022/01/30 05:28:24;;;;;;;5.95;0.80;;;;;11.60;102661.00;;;;5079069;28;20691;-82
2022/01/30 05:30:52;;;;;;;4.78;1.38;;;;;11.60;102662.00;;;;5080831;28;20302;-82
2022/01/30 05:33:20;;;;;;;3.47;1.15;;;;;11.60;102658.00;;;;5075556;28;20199;-81
2022/01/30 05:35:47;;;;;;;6.95;1.05;;;;;11.60;102660.00;;;;5085702;28;20253;-81
2022/01/30 05:38:15;;;;;;;7.18;1.00;;;;;11.60;102654.00;;;;5090030;28;20244;-81
2022/01/30 05:40:42;;;;;;;6.05;1.35;;;;;11.60;102654.00;;;;5073453;28;20199;-82
2022/01/30 05:43:10;;;;;;;5.18;1.20;;;;;11.50;102656.00;;;;5085693;28;20191;-82
2022/01/30 05:45:42;;;;;;;5.63;0.90;;;;;11.50;102653.00;;;;5069337;28;20195;-80
2022/01/30 05:48:15;;;;;;;4.95;1.02;;;;;11.50;102659.00;;;;5074430;28;20279;-81
2022/01/30 05:50:43;;;;;;;5.72;1.13;;;;;11.50;102662.00;;;;5069537;28;20206;-82
2022/01/30 05:53:10;;;;;;;4.57;1.17;;;;;11.50;102664.00;;;;5083452;28;20195;-81
2022/01/30 05:55:38;;;;;;;4.45;0.75;;;;;11.50;102669.00;;;;5079430;28;20190;-81
2022/01/30 05:58:05;;;;;;;6.45;1.65;;;;;11.50;102676.00;;;;5078773;28;20234;-82
2022/01/30 06:00:33;;;;;;;4.93;0.52;;;;;11.50;102677.00;;;;5075844;28;20205;-81
2022/01/30 06:03:01;;;;;;;6.75;1.63;;;;;11.40;102675.00;;;;5087968;28;20205;-81
2022/01/30 06:05:28;;;;;;;7.60;1.33;;;;;11.40;102678.00;;;;5074095;28;20202;-81
2022/01/30 06:07:57;;;;;;;6.50;1.30;;;;;11.40;102678.00;;;;5074557;28;20268;-81
2022/01/30 06:10:26;;;;;;;9.18;1.55;;;;;11.40;102676.00;;;;5090073;28;20209;-81
2022/01/30 06:12:54;;;;;;;4.68;0.93;;;;;11.40;102683.00;;;;5088959;28;20195;-81
2022/01/30 06:15:21;;;;;;;5.93;0.80;;;;;11.40;102686.00;;;;5081590;28;20286;-82
2022/01/30 06:17:49;;;;;;;5.32;1.10;;;;;11.30;102681.00;;;;5079451;28;20245;-82
2022/01/30 06:20:18;;;;;;;3.83;1.08;;;;;11.30;102679.00;;;;5089349;28;20204;-82
2022/01/30 06:22:45;;;;;;;9.48;1.50;;;;;11.30;102682.00;;;;5086534;28;20194;-82
2022/01/30 06:25:13;;;;;;;2.60;0.90;;;;;11.30;102687.00;;;;5084402;28;20601;-82
2022/01/30 06:27:40;;;;;;;3.42;0.95;;;;;11.30;102679.00;;;;5079086;28;20198;-81
2022/01/30 06:30:09;;;;;;;3.70;0.90;;;;;11.30;102679.00;;;;5085867;28;20209;-81
2022/01/30 06:32:37;;;;;;;4.55;1.55;;;;;11.30;102681.00;;;;5089033;28;20190;-82
2022/01/30 06:35:05;;;;;;;6.68;1.48;;;;;11.30;102684.00;;;;5089694;28;20647;-82
2022/01/30 06:37:34;;;;;;;4.13;0.70;;;;;11.20;102685.00;;;;5079272;28;20218;-82
2022/01/30 06:40:02;;;;;;;8.93;1.65;;;;;11.20;102689.00;;;;5068502;28;20210;-82
2022/01/30 06:42:30;;;;;;;3.33;1.10;;;;;11.20;102693.00;;;;5072838;28;20209;-81
2022/01/30 06:44:57;;;;;;;5.22;1.13;;;;;11.20;102689.00;;;;5089311;28;20199;-81
2022/01/30 06:47:25;;;;;;;5.55;1.15;;;;;11.20;102694.00;;;;5077670;28;20190;-82
2022/01/30 06:49:52;;;;;;;9.40;1.95;;;;;11.20;102701.00;;;;5086713;28;20190;-82
2022/01/30 06:52:19;;;;;;;6.22;1.73;;;;;11.20;102698.00;;;;5069169;28;20195;-82
2022/01/30 06:54:48;;;;;;;4.55;1.35;;;;;11.20;102709.00;;;;5080204;28;20202;-82
2022/01/30 06:57:15;;;;;;;4.43;1.00;;;;;11.20;102711.00;;;;5073863;28;20238;-82
2022/01/30 06:59:42;;;;;;;6.35;1.17;;;;;11.20;102717.00;;;;5074354;28;20253;-81
2022/01/30 07:02:10;;;;;;;6.07;1.35;;;;;11.20;102720.00;;;;5085838;28;20187;-82
2022/01/30 07:04:37;;;;;;;7.55;1.80;;;;;11.20;102719.00;;;;5086003;28;20202;-83
2022/01/30 07:07:05;;;;;;;4.32;1.35;;;;;11.20;102727.00;;;;5088219;28;20194;-82
2022/01/30 07:09:33;;;;;;;3.75;1.15;;;;;11.20;102734.00;;;;5074324;28;20230;-82
2022/01/30 07:12:03;;;;;;;7.25;1.20;;;;;11.20;102731.00;;;;5074643;28;20409;-82
2022/01/30 07:14:30;;;;;;;6.20;1.15;;;;;11.20;102729.00;;;;5076490;28;20598;-82
2022/01/30 07:16:58;;;;;;;2.72;0.93;;;;;11.20;102733.00;;;;5084858;28;20217;-82
2022/01/30 07:19:25;;;;;;;4.57;1.23;;;;;11.20;102726.00;;;;5081408;28;20229;-81
2022/01/30 07:21:52;;;;;;;6.85;1.20;;;;;11.20;102735.00;;;;5067965;28;20642;-82
2022/01/30 07:24:20;;;;;;;6.75;1.83;;;;;11.10;102738.00;;;;5068580;28;20244;-82
2022/01/30 07:26:48;;;;;;;6.07;1.17;;;;;11.10;102742.00;;;;5079784;28;20278;-81
2022/01/30 07:29:16;;;;;;;7.35;1.67;;;;;11.10;102738.00;;;;5086556;28;21016;-82
2022/01/30 07:31:44;;;;;;;6.45;1.08;;;;;11.10;102749.00;;;;5080821;28;20205;-82
2022/01/30 07:34:11;;;;;;;6.45;1.23;;;;;11.10;102764.00;;;;5087094;28;20209;-82
2022/01/30 07:36:39;;;;;;;5.60;1.20;;;;;11.10;102758.00;;;;5072733;28;20655;-82
2022/01/30 07:39:08;;;;;;;7.40;1.17;;;;;11.10;102769.00;;;;5085144;28;20277;-81
2022/01/30 07:41:36;;;;;;;7.53;1.90;;;;;11.10;102764.00;;;;5068881;28;20202;-80
2022/01/30 07:44:04;;;;;;;9.77;1.92;;;;;11.10;102767.00;;;;5068393;28;20684;-80
2022/01/30 07:46:33;;;;;;;6.63;1.98;;;;;11.10;102767.00;;;;5073863;28;20194;-81
2022/01/30 07:49:01;;;;;;;5.80;1.77;;;;;11.10;102758.00;;;;5077774;28;20198;-80
2022/01/30 07:51:29;;;;;;;4.18;0.88;;;;;11.10;102756.00;;;;5084604;28;20201;-80
2022/01/30 07:53:56;;;;;;;4.95;1.20;;;;;11.10;102764.00;;;;5087018;28;20579;-80
2022/01/30 07:56:24;;;;;;;10.65;1.83;;;;;11.10;102766.00;;;;5087285;28;20197;-80
2022/01/30 07:58:52;;;;;;;9.20;1.70;;;;;11.10;102764.00;;;;5092475;28;20259;-78
2022/01/30 08:01:19;;;;;;;7.15;1.65;;;;;11.10;102767.00;;;;5092451;28;20258;-80
2022/01/30 08:03:49;;;;;;;11.10;2.55;;;;;11.00;102767.00;;;;5085006;28;20218;-79
2022/01/30 08:06:16;;;;;;;7.80;1.70;;;;;11.10;102784.00;;;;5086829;28;20205;-79
2022/01/30 08:08:43;;;;;;;5.85;1.23;;;;;11.10;102775.00;;;;5096923;28;20198;-80
2022/01/30 08:11:11;;;;;;;8.23;1.83;;;;;11.10;102769.00;;;;5099587;28;20196;-79
2022/01/30 08:13:38;;;;;;;6.05;1.20;;;;;11.10;102767.00;;;;5092606;28;20198;-79
2022/01/30 08:16:12;;;;;;;8.85;1.42;;;;;11.10;102766.00;;;;5089539;28;20654;-80
2022/01/30 08:18:39;;;;;;;7.55;1.40;;;;;11.10;102764.00;;;;5100346;28;20236;-80
2022/01/30 08:21:07;;;;;;;6.78;1.33;;;;;11.10;102769.00;;;;5085321;28;20202;-80
2022/01/30 08:23:35;;;;;;;8.23;1.48;;;;;11.20;102766.00;;;;5082867;28;20202;-80
2022/01/30 08:26:03;;;;;;;9.95;1.65;;;;;11.20;102774.00;;;;5082450;28;20222;-81
2022/01/30 08:28:30;;;;;;;6.55;2.05;;;;;11.20;102775.00;;;;5088369;28;20202;-78
2022/01/30 08:30:57;;;;;;;6.15;1.38;;;;;11.30;102777.00;;;;5073591;28;20191;-80
2022/01/30 08:33:25;;;;;;;6.82;1.17;;;;;11.40;102781.00;;;;5085684;28;20206;-79
2022/01/30 08:35:52;;;;;;;5.20;1.27;;;;;11.40;102782.00;;;;5074436;28;20226;-79
2022/01/30 08:38:21;;;;;;;14.20;2.08;;;;;11.50;102792.00;;;;5071769;28;20230;-79
2022/01/30 08:40:49;;;;;;;8.32;1.58;;;;;11.50;102792.00;;;;5071250;28;20207;-79
2022/01/30 08:43:17;;;;;;;6.45;1.40;;;;;11.60;102795.00;;;;5089690;28;20243;-80
2022/01/30 08:45:44;;;;;;;5.40;1.23;;;;;11.60;102800.00;;;;5071486;28;20208;-80
2022/01/30 08:48:11;;;;;;;8.35;1.88;;;;;11.70;102796.00;;;;5074859;28;20195;-79
2022/01/30 08:50:39;;;;;;;7.80;1.58;;;;;11.70;102800.00;;;;5084383;28;20601;-79
2022/01/30 08:53:07;;;;;;;4.88;1.50;;;;;11.70;102811.00;;;;5072974;28;20230;-78
2022/01/30 08:55:35;;;;;;;9.20;1.50;;;;;11.80;102806.00;;;;5072588;28;20794;-79
2022/01/30 08:58:07;;;;;;;8.80;2.05;;;;;11.80;102815.00;;;;5076521;28;20226;-79
2022/01/30 09:00:36;;;;;;;5.15;1.27;;;;;11.80;102812.00;;;;5078938;28;20203;-78
2022/01/30 09:03:04;;;;;;;9.13;1.60;;;;;11.90;102816.00;;;;5084474;28;20285;-76
2022/01/30 09:05:32;;;;;;;6.35;1.55;;;;;11.90;102819.00;;;;5079023;28;20205;-77
2022/01/30 09:07:59;;;;;;;4.78;1.40;;;;;11.90;102819.00;;;;5075908;28;20194;-77
2022/01/30 09:10:27;;;;;;;7.07;1.50;;;;;12.00;102831.00;;;;5077705;28;20210;-77
2022/01/30 09:12:55;;;;;;;9.43;2.15;;;;;12.00;102823.00;;;;5076052;28;20736;-77
2022/01/30 09:15:22;;;;;;;5.75;1.13;;;;;12.10;102822.00;;;;5077980;28;20205;-78
2022/01/30 09:17:51;;;;;;;8.55;1.65;;;;;12.10;102835.00;;;;5076137;28;20230;-77
2022/01/30 09:20:19;;;;;;;10.48;1.83;;;;;12.20;102832.00;;;;5076385;28;20198;-77
2022/01/30 09:22:53;;;;;;;4.88;1.42;;;;;12.20;102835.00;;;;5087539;28;20229;-78
2022/01/30 09:25:20;;;;;;;9.02;1.98;;;;;12.30;102838.00;;;;5072848;28;20293;-78
2022/01/30 09:27:48;;;;;;;8.00;2.08;;;;;12.30;102835.00;;;;5074905;28;20202;-78
2022/01/30 09:30:17;;;;;;;8.38;1.80;;;;;12.30;102839.00;;;;5087929;28;20198;-78
2022/01/30 09:32:45;;;;;;;12.48;2.20;;;;;12.40;102839.00;;;;5089636;28;20621;-78
2022/01/30 09:35:12;;;;;;;7.20;1.98;;;;;12.40;102841.00;;;;5072880;28;20301;-78
2022/01/30 09:37:39;;;;;;;11.38;2.33;;;;;12.50;102849.00;;;;5072758;28;20233;-78
2022/01/30 09:40:08;;;;;;;7.70;2.33;;;;;12.50;102847.00;;;;5083435;28;20194;-79
2022/01/30 09:42:36;;;;;;;5.20;1.30;;;;;12.60;102847.00;;;;5076581;28;20234;-79
2022/01/30 09:45:05;;;;;;;12.18;2.67;;;;;12.60;102859.00;;;;5070583;28;20184;-79
2022/01/30 09:47:37;;;;;;;7.07;1.73;;;;;12.60;102852.00;;;;5071151;28;20533;-79
2022/01/30 09:50:07;;;;;;;6.72;1.20;;;;;12.70;102865.00;;;;5078180;28;20210;-79
2022/01/30 09:52:36;;;;;;;11.77;2.55;;;;;12.80;102869.00;;;;5082446;28;20199;-79
2022/01/30 09:55:03;;;;;;;8.57;2.03;;;;;12.80;102876.00;;;;5074894;28;20206;-79
2022/01/30 09:57:31;;;;;;;9.07;2.28;;;;;12.90;102874.00;;;;5084678;28;20214;-80
2022/01/30 09:59:58;;;;;;;12.20;1.83;;;;;12.90;102871.00;;;;5072743;28;20189;-80
2022/01/30 10:02:26;;;;;;;6.90;1.23;;;;;13.00;102872.00;;;;5083533;28;20203;-81
2022/01/30 10:04:55;;;;;;;11.88;2.35;;;;;13.10;102881.00;;;;5084820;28;20641;-81
2022/01/30 10:07:26;;;;;;;7.47;1.65;;;;;13.10;102873.00;;;;5078686;28;20667;-80
2022/01/30 10:10:06;;;;;;;9.02;2.40;;;;;13.20;102886.00;;;;5072686;28;20218;-81
2022/01/30 10:12:34;;;;;;;7.65;1.50;;;;;13.20;102882.00;;;;5083850;28;20542;-81
2022/01/30 10:15:05;;;;;;;7.18;2.10;;;;;13.20;102883.00;;;;5077735;28;20656;-79
2022/01/30 10:17:35;;;;;;;4.72;1.30;;;;;13.30;102883.00;;;;5076727;28;20198;-80
2022/01/30 10:20:12;;;;;;;11.02;2.00;;;;;13.30;102895.00;;;;5080899;28;20187;-80
2022/01/30 10:22:50;;;;;;;8.82;1.98;;;;;13.30;102895.00;;;;5092606;28;20254;-80
2022/01/30 10:25:25;;;;;;;7.82;1.77;;;;;13.40;102885.00;;;;5089065;28;20221;-80
2022/01/30 10:28:07;;;;;;;10.05;1.88;;;;;13.40;102878.00;;;;5077013;28;20225;-79
2022/01/30 10:30:42;;;;;;;8.85;1.38;;;;;13.50;102890.00;;;;5079847;28;20293;-79
2022/01/30 10:33:12;;;;;;;11.45;2.38;;;;;13.70;102888.00;;;;5082361;28;20575;-78
2022/01/30 10:35:53;;;;;;;10.27;2.25;;;;;13.70;102888.00;;;;5079568;28;20215;-82
2022/01/30 10:38:24;;;;;;;7.50;1.73;;;;;13.80;102905.00;;;;5077839;28;20317;-84
2022/01/30 10:41:09;;;;;;;9.40;1.63;;;;;13.80;102897.00;;;;5073137;28;20195;-81
2022/01/30 10:43:52;;;;;;;5.05;1.45;;;;;13.80;102905.00;;;;5069035;28;20248;-82
2022/01/30 10:46:21;;;;;;;12.02;1.77;;;;;14.00;102901.00;;;;5074482;28;20201;-82
2022/01/30 10:48:57;;;;;;;9.23;1.35;;;;;14.10;102897.00;;;;5074873;28;20205;-82
2022/01/30 10:51:27;;;;;;;9.07;2.13;;;;;14.10;102891.00;;;;5085872;28;21089;-82
2022/01/30 10:53:55;;;;;;;6.72;2.08;;;;;14.20;102882.00;;;;5089752;28;20202;-82
2022/01/30 10:56:25;;;;;;;10.52;1.90;;;;;14.20;102887.00;;;;5089373;28;20199;-82
2022/01/30 10:59:17;;;;;;;11.60;1.88;;;;;14.10;102886.00;;;;5089936;28;20683;-84
2022/01/30 11:01:45;;;;;;;12.25;2.60;;;;;14.20;102884.00;;;;5091167;28;20206;-82
2022/01/30 11:04:23;;;;;;;8.18;1.92;;;;;14.10;102881.00;;;;5079076;28;20649;-82
2022/01/30 11:06:52;;;;;;;8.38;2.13;;;;;14.20;102874.00;;;;5068866;28;20209;-82
2022/01/30 11:09:24;;;;;;;8.88;2.28;;;;;14.20;102878.00;;;;5069014;28;20199;-82
2022/01/30 11:11:55;;;;;;;6.53;2.08;;;;;14.20;102873.00;;;;5068879;28;20226;-82
2022/01/30 11:14:34;;;;;;;7.90;1.80;;;;;14.20;102870.00;;;;5072723;28;20202;-82
2022/01/30 11:17:07;;;;;;;8.48;1.60;;;;;14.20;102888.00;;;;5088283;28;20198;-82
2022/01/30 11:19:38;;;;;;;8.60;2.25;;;;;14.20;102895.00;;;;5088590;28;20234;-81
2022/01/30 11:22:08;;;;;;;6.85;1.85;;;;;14.30;102884.00;;;;5089087;28;20198;-82
2022/01/30 11:24:42;;;;;;;8.77;2.33;;;;;14.30;102874.00;;;;5088493;28;20665;-82
2022/01/30 11:27:10;;;;;;;18.42;3.20;;;;;14.40;102875.00;;;;5085624;28;20605;-82
2022/01/30 11:29:38;;;;;;;8.95;1.80;;;;;14.40;102875.00;;;;5088371;28;20211;-82
2022/01/30 11:32:07;;;;;;;16.42;1.88;;;;;14.50;102871.00;;;;5088088;28;20206;-82
2022/01/30 11:34:34;;;;;;;9.07;1.63;;;;;14.50;102875.00;;;;5087997;28;20204;-82
2022/01/30 11:37:03;;;;;;;9.50;2.20;;;;;14.50;102868.00;;;;5088437;28;20652;-82
2022/01/30 11:39:31;;;;;;;7.78;2.45;;;;;14.60;102864.00;;;;5088636;28;20233;-82
2022/01/30 11:42:12;;;;;;;9.30;2.03;;;;;14.60;102861.00;;;;5089062;28;20209;-82
2022/01/30 11:44:40;;;;;;;5.13;1.30;;;;;14.70;102866.00;;;;5088694;28;20197;-83
2022/01/30 11:47:21;;;;;;;8.13;2.28;;;;;14.80;102866.00;;;;5088788;28;20212;-82
2022/01/30 11:50:02;;;;;;;8.93;1.65;;;;;14.90;102869.00;;;;5088254;28;20213;-81
2022/01/30 11:52:49;;;;;;;6.95;1.98;;;;;14.80;102862.00;;;;5083942;28;20198;-82
2022/01/30 11:55:49;;;;;;;6.10;1.55;;;;;14.80;102859.00;;;;5058449;28;20195;-82
2022/01/30 11:58:35;;;;;;;13.13;1.90;;;;;14.90;102875.00;;;;5068135;28;20311;-81
2022/01/30 12:01:04;;;;;;;10.10;1.85;;;;;15.10;102869.00;;;;5068495;28;20191;-83
2022/01/30 12:03:35;;;;;;;6.72;1.60;;;;;15.20;102872.00;;;;5068018;28;20206;-82
2022/01/30 12:06:30;;;;;;;9.77;2.08;;;;;15.30;102870.00;;;;5076451;28;20729;-79
2022/01/30 12:08:59;;;;;;;5.07;1.70;;;;;15.40;102871.00;;;;5083139;28;20206;-79
2022/01/30 12:11:56;;;;;;;10.75;2.35;;;;;15.30;102882.00;;;;5068315;28;20248;-80
2022/01/30 12:14:57;;;;;;;7.50;2.15;;;;;15.30;102878.00;;;;5068586;28;20201;-83
2022/01/30 12:17:49;;;;;;;10.35;1.98;;;;;15.20;102872.00;;;;5068069;28;20206;-83
2022/01/30 12:20:18;;;;;;;9.82;2.10;;;;;15.20;102878.00;;;;5067237;28;20218;-82
2022/01/30 12:22:45;;;;;;;9.60;1.83;;;;;15.10;102876.00;;;;5073751;28;20206;-82
2022/01/30 12:25:34;;;;;;;8.63;1.73;;;;;15.00;102867.00;;;;5088552;28;20218;-82
2022/01/30 12:28:08;;;;;;;6.43;1.90;;;;;14.90;102871.00;;;;5085798;28;20284;-82
2022/01/30 12:30:49;;;;;;;7.80;1.80;;;;;14.80;102859.00;;;;5088411;28;20293;-82
2022/01/30 12:33:40;;;;;;;14.10;2.22;;;;;14.80;102855.00;;;;5087707;28;20719;-81
2022/01/30 12:36:16;;;;;;;9.50;1.85;;;;;14.90;102860.00;;;;5085864;28;20436;-82
2022/01/30 12:38:44;;;;;;;9.82;3.55;;;;;14.90;102860.00;;;;5086120;28;20908;-82
2022/01/30 12:41:16;;;;;;;10.10;2.63;;;;;14.90;102850.00;;;;5086140;28;20201;-82
2022/01/30 12:43:45;;;;;;;6.35;1.60;;;;;14.90;102836.00;;;;5088655;28;20243;-82
2022/01/30 12:46:14;;;;;;;6.70;1.60;;;;;14.90;102841.00;;;;5090523;28;20271;-82
2022/01/30 12:48:42;;;;;;;8.90;2.42;;;;;14.90;102848.00;;;;5090290;28;20675;-82
2022/01/30 12:51:14;;;;;;;7.80;2.05;;;;;14.80;102832.00;;;;5091247;28;20209;-82
2022/01/30 12:53:42;;;;;;;7.13;1.75;;;;;14.70;102827.00;;;;5091350;28;20195;-82
2022/01/30 12:56:10;;;;;;;6.07;1.70;;;;;14.70;102825.00;;;;5090668;28;20190;-83
2022/01/30 12:58:45;;;;;;;7.90;1.83;;;;;14.60;102819.00;;;;5087144;28;20292;-82
2022/01/30 13:01:15;;;;;;;7.95;2.47;;;;;14.70;102816.00;;;;5071907;28;20244;-82